createdAt,value
2023-05-10T00:00:36.462Z,12.74
2023-05-10T00:03:07.049Z,12.77
2023-05-10T00:05:36.685Z,12.75
2023-05-10T00:08:06.342Z,12.75
2023-05-10T00:10:38.503Z,12.69
2023-05-10T00:13:08.112Z,12.65
2023-05-10T00:15:38.166Z,12.63
2023-05-10T00:18:07.842Z,12.58
2023-05-10T00:20:37.662Z,12.59
2023-05-10T00:23:07.266Z,12.55
2023-05-10T00:25:39.326Z,12.49
2023-05-10T00:28:08.907Z,12.47
2023-05-10T00:30:38.458Z,12.41
2023-05-10T00:33:08.107Z,12.43
2023-05-10T00:35:38.980Z,12.39
2023-05-10T00:38:08.602Z,12.36
2023-05-10T00:40:42.033Z,12.33
2023-05-10T00:43:11.523Z,12.32
2023-05-10T00:45:41.675Z,12.32
2023-05-10T00:48:11.433Z,12.34
2023-05-10T00:50:41.214Z,12.24
2023-05-10T00:53:11.383Z,12.26
2023-05-10T00:55:43.521Z,12.21
2023-05-10T00:58:14.030Z,12.18
2023-05-10T01:00:45.651Z,12.13
2023-05-10T01:03:15.557Z,12.08
2023-05-10T01:05:45.250Z,12.09
2023-05-10T01:08:14.933Z,12.05
2023-05-10T01:10:47.505Z,11.99
2023-05-10T01:13:17.196Z,11.98
2023-05-10T01:15:46.857Z,11.98
2023-05-10T01:18:16.524Z,11.95
2023-05-10T01:20:50.279Z,11.89
2023-05-10T01:23:40.087Z,11.87
2023-05-10T01:26:19.366Z,11.91
2023-05-10T01:29:15.781Z,11.83
2023-05-10T01:32:09.239Z,11.78
2023-05-10T01:34:41.567Z,11.76
2023-05-10T01:37:15.211Z,11.75
2023-05-10T01:39:49.738Z,11.69
2023-05-10T01:42:22.851Z,11.66
2023-05-10T01:44:58.065Z,11.64
2023-05-10T01:47:35.446Z,11.58
2023-05-10T01:50:07.549Z,11.61
2023-05-10T01:52:40.729Z,11.60
2023-05-10T01:55:13.410Z,11.57
2023-05-10T01:57:44.633Z,11.59
2023-05-10T02:00:15.898Z,11.56
2023-05-10T02:02:49.235Z,11.59
2023-05-10T02:05:19.387Z,11.56
2023-05-10T02:07:49.238Z,11.51
2023-05-10T02:10:19.695Z,11.56
2023-05-10T02:12:51.907Z,11.41
2023-05-10T02:15:28.083Z,11.37
2023-05-10T02:18:01.273Z,11.43
2023-05-10T02:20:31.079Z,11.37
2023-05-10T02:23:01.947Z,11.34
2023-05-10T02:25:32.677Z,11.35
2023-05-10T02:28:04.032Z,11.31
2023-05-10T02:30:35.439Z,11.34
2023-05-10T02:33:08.561Z,11.23
2023-05-10T02:35:39.437Z,11.16
2023-05-10T02:38:09.406Z,11.14
2023-05-10T02:40:40.936Z,11.16
2023-05-10T02:43:13.623Z,11.17
2023-05-10T02:45:43.682Z,11.06
2023-05-10T02:48:15.865Z,11.05
2023-05-10T02:50:52.382Z,11.07
2023-05-10T02:53:26.632Z,11.05
2023-05-10T02:55:56.941Z,11.00
2023-05-10T02:58:26.503Z,10.95
2023-05-10T03:00:56.169Z,10.88
2023-05-10T03:03:31.001Z,10.92
2023-05-10T03:06:00.521Z,10.90
2023-05-10T03:08:30.444Z,10.83
2023-05-10T03:11:12.273Z,10.76
2023-05-10T03:13:48.409Z,10.76
2023-05-10T03:16:19.904Z,10.89
2023-05-10T03:18:58.905Z,10.92
2023-05-10T03:21:29.972Z,10.87
2023-05-10T03:24:03.686Z,10.82
2023-05-10T03:26:33.223Z,10.86
2023-05-10T03:29:03.176Z,10.87
2023-05-10T03:31:32.788Z,10.93
2023-05-10T03:34:05.056Z,10.90
2023-05-10T03:36:34.561Z,10.87
2023-05-10T03:39:04.117Z,10.82
2023-05-10T03:41:33.704Z,10.76
2023-05-10T03:44:03.178Z,10.87
2023-05-10T03:46:32.693Z,10.76
2023-05-10T03:49:04.847Z,10.72
2023-05-10T03:51:34.343Z,10.71
2023-05-10T03:54:03.870Z,10.72
2023-05-10T03:56:33.726Z,10.74
2023-05-10T03:59:08.403Z,10.72
2023-05-10T04:01:38.006Z,10.84
2023-05-10T04:04:10.397Z,10.75
2023-05-10T04:06:39.967Z,10.75
2023-05-10T04:09:09.533Z,10.84
2023-05-10T04:11:39.027Z,10.83
2023-05-10T04:14:08.511Z,10.71
2023-05-10T04:16:38.112Z,10.81
2023-05-10T04:19:10.267Z,10.82
2023-05-10T04:21:40.257Z,10.84
2023-05-10T04:24:09.997Z,10.86
2023-05-10T04:26:39.501Z,10.82
2023-05-10T04:29:08.996Z,10.82
2023-05-10T04:31:38.508Z,10.78
2023-05-10T04:34:10.554Z,10.82
2023-05-10T04:36:40.147Z,10.76
2023-05-10T04:39:11.030Z,10.82
2023-05-10T04:41:41.641Z,10.75
2023-05-10T04:44:11.234Z,10.81
2023-05-10T04:46:40.842Z,10.82
2023-05-10T04:49:12.922Z,10.92
2023-05-10T04:51:42.386Z,10.88
2023-05-10T04:54:11.899Z,10.87
2023-05-10T04:56:42.004Z,11.02
2023-05-10T04:59:12.189Z,11.05
2023-05-10T05:01:41.740Z,11.35
2023-05-10T05:04:13.830Z,11.39
2023-05-10T05:06:43.316Z,11.25
2023-05-10T05:09:12.923Z,11.14
2023-05-10T05:11:42.686Z,11.20
2023-05-10T05:14:12.200Z,11.26
2023-05-10T05:16:41.803Z,11.28
2023-05-10T05:19:14.006Z,11.31
2023-05-10T05:21:43.814Z,11.39
2023-05-10T05:24:13.759Z,11.35
2023-05-10T05:26:43.264Z,11.39
2023-05-10T05:29:12.818Z,11.45
2023-05-10T05:31:42.618Z,11.51
2023-05-10T05:34:14.746Z,11.52
2023-05-10T05:36:44.243Z,11.56
2023-05-10T05:39:14.013Z,11.60
2023-05-10T05:41:43.566Z,11.66
2023-05-10T05:44:13.375Z,11.81
2023-05-10T05:46:43.120Z,11.91
2023-05-10T05:49:15.354Z,11.85
2023-05-10T05:51:45.631Z,11.86
2023-05-10T05:54:15.196Z,11.95
2023-05-10T05:56:45.387Z,11.96
2023-05-10T05:59:14.942Z,11.92
2023-05-10T06:01:44.463Z,12.03
2023-05-10T06:04:16.735Z,12.08
2023-05-10T06:06:46.596Z,12.27
2023-05-10T06:09:16.189Z,12.42
2023-05-10T06:11:45.983Z,12.45
2023-05-10T06:14:15.931Z,12.54
2023-05-10T06:16:45.921Z,12.55
2023-05-10T06:19:18.447Z,12.69
2023-05-10T06:21:47.947Z,12.93
2023-05-10T06:24:17.447Z,12.98
2023-05-10T06:26:46.964Z,13.03
2023-05-10T06:29:16.626Z,12.99
2023-05-10T06:31:46.159Z,12.98
2023-05-10T06:34:18.327Z,13.10
2023-05-10T06:36:48.140Z,13.21
2023-05-10T06:39:17.687Z,13.18
2023-05-10T06:41:47.234Z,13.22
2023-05-10T06:44:16.767Z,13.15
2023-05-10T06:46:46.433Z,13.30
2023-05-10T06:49:18.766Z,13.30
2023-05-10T06:51:48.445Z,13.37
2023-05-10T06:54:17.911Z,13.40
2023-05-10T06:56:47.544Z,13.33
2023-05-10T06:59:17.660Z,13.31
2023-05-10T07:01:47.302Z,13.26
2023-05-10T07:04:19.432Z,13.29
2023-05-10T07:06:50.778Z,13.41
2023-05-10T07:09:20.674Z,13.53
2023-05-10T07:11:50.163Z,13.61
2023-05-10T07:14:22.564Z,13.62
2023-05-10T07:16:52.408Z,13.62
2023-05-10T07:19:27.108Z,13.78
2023-05-10T07:21:56.766Z,13.80
2023-05-10T07:24:26.723Z,13.75
2023-05-10T07:26:56.359Z,14.02
2023-05-10T07:29:25.883Z,14.23
2023-05-10T07:31:57.877Z,14.35
2023-05-10T07:34:31.575Z,14.50
2023-05-10T07:37:01.947Z,14.50
2023-05-10T07:39:31.632Z,14.34
2023-05-10T07:42:01.216Z,14.68
2023-05-10T07:44:30.696Z,14.69
2023-05-10T07:47:00.621Z,14.86
2023-05-10T07:49:32.704Z,14.75
2023-05-10T07:52:02.222Z,14.60
2023-05-10T07:54:31.985Z,14.67
2023-05-10T07:57:01.631Z,14.57
2023-05-10T07:59:31.110Z,14.66
2023-05-10T08:02:00.658Z,14.69
2023-05-10T08:04:33.046Z,14.76
2023-05-10T08:07:02.616Z,14.77
2023-05-10T08:09:32.090Z,14.60
2023-05-10T08:12:01.609Z,14.36
2023-05-10T08:14:32.920Z,14.35
2023-05-10T08:17:02.372Z,14.37
2023-05-10T08:19:34.644Z,14.50
2023-05-10T08:22:04.215Z,14.46
2023-05-10T08:24:35.822Z,14.32
2023-05-10T08:27:05.329Z,14.58
2023-05-10T08:29:46.215Z,14.72
2023-05-10T08:32:19.651Z,14.74
2023-05-10T08:34:51.931Z,14.65
2023-05-10T08:37:21.512Z,14.57
2023-05-10T08:39:51.962Z,14.68
2023-05-10T08:42:24.109Z,14.82
2023-05-10T08:44:56.228Z,14.95
2023-05-10T08:47:26.097Z,14.95
2023-05-10T08:49:59.193Z,14.88
2023-05-10T08:52:30.490Z,14.60
2023-05-10T08:55:00.400Z,14.40
2023-05-10T08:57:30.064Z,14.35
2023-05-10T08:59:59.599Z,14.52
2023-05-10T09:02:29.191Z,14.37
2023-05-10T09:05:01.441Z,14.48
2023-05-10T09:07:31.681Z,14.66
2023-05-10T09:10:01.842Z,14.85
2023-05-10T09:12:31.647Z,14.93
2023-05-10T09:15:02.165Z,15.04
2023-05-10T09:17:32.251Z,15.29
2023-05-10T09:20:05.968Z,15.43
2023-05-10T09:22:35.538Z,15.37
2023-05-10T09:25:09.514Z,15.37
2023-05-10T09:27:39.432Z,15.38
2023-05-10T09:30:10.779Z,15.44
2023-05-10T09:32:41.247Z,15.62
2023-05-10T09:35:18.505Z,16.02
2023-05-10T09:37:50.523Z,16.01
2023-05-10T09:40:21.716Z,15.59
2023-05-10T09:43:00.554Z,15.46
2023-05-10T09:45:32.572Z,15.49
2023-05-10T09:48:03.574Z,15.17
2023-05-10T09:50:35.710Z,15.10
2023-05-10T09:53:06.724Z,15.02
2023-05-10T09:55:46.113Z,15.09
2023-05-10T09:58:16.244Z,15.11
2023-05-10T10:00:48.869Z,15.28
2023-05-10T10:03:19.864Z,15.27
2023-05-10T10:05:52.438Z,15.13
2023-05-10T10:08:23.302Z,15.09
2023-05-10T10:10:53.046Z,14.67
2023-05-10T10:13:22.930Z,14.63
2023-05-10T10:15:53.748Z,14.44
2023-05-10T10:18:28.147Z,14.15
2023-05-10T10:21:00.780Z,14.05
2023-05-10T10:23:31.248Z,13.74
2023-05-10T10:26:01.215Z,13.46
2023-05-10T10:28:37.353Z,13.24
2023-05-10T10:31:17.939Z,12.92
2023-05-10T10:33:59.826Z,12.78
2023-05-10T10:36:32.391Z,12.63
2023-05-10T10:39:05.424Z,12.47
2023-05-10T10:41:36.498Z,12.39
2023-05-10T10:44:27.905Z,12.33
2023-05-10T10:47:24.381Z,12.40
2023-05-10T10:49:57.603Z,12.34
2023-05-10T10:52:34.568Z,12.32
2023-05-10T10:55:06.330Z,12.36
2023-05-10T10:57:37.057Z,12.36
2023-05-10T11:00:26.053Z,12.42
2023-05-10T11:02:57.331Z,12.51
2023-05-10T11:05:38.374Z,12.54
2023-05-10T11:08:15.877Z,12.46
2023-05-10T11:10:54.642Z,12.50
2023-05-10T11:13:34.832Z,12.64
2023-05-10T11:16:15.078Z,12.80
2023-05-10T11:18:50.248Z,12.73
2023-05-10T11:21:19.841Z,12.67
2023-05-10T11:23:57.341Z,12.75
2023-05-10T11:26:27.423Z,12.77
2023-05-10T11:29:00.263Z,12.73
2023-05-10T11:31:30.190Z,12.78
2023-05-10T11:34:02.825Z,12.82
2023-05-10T11:36:33.805Z,12.62
2023-05-10T11:39:06.813Z,12.71
2023-05-10T11:41:36.609Z,12.77
2023-05-10T11:44:06.332Z,12.71
2023-05-10T11:46:35.935Z,12.81
2023-05-10T11:49:08.013Z,13.04
2023-05-10T11:51:40.467Z,13.06
2023-05-10T11:54:13.893Z,12.93
2023-05-10T11:56:43.728Z,12.80
2023-05-10T11:59:13.261Z,12.89
2023-05-10T12:01:42.763Z,12.83
2023-05-10T12:04:12.718Z,12.87
2023-05-10T12:06:45.209Z,12.66
2023-05-10T12:09:23.008Z,12.70
2023-05-10T12:12:02.158Z,12.66
2023-05-10T12:14:34.461Z,12.54
2023-05-10T12:17:03.981Z,12.66
2023-05-10T12:19:40.946Z,12.74
2023-05-10T12:22:10.508Z,12.56
2023-05-10T12:24:42.726Z,12.56
2023-05-10T12:27:13.471Z,12.66
2023-05-10T12:29:45.764Z,12.67
2023-05-10T12:32:15.342Z,12.91
2023-05-10T12:34:44.912Z,12.93
2023-05-10T12:37:14.408Z,12.95
2023-05-10T12:39:48.112Z,13.11
2023-05-10T12:42:17.635Z,12.84
2023-05-10T12:44:47.321Z,12.83
2023-05-10T12:47:16.875Z,12.94
2023-05-10T12:49:46.406Z,13.12
2023-05-10T12:52:15.950Z,13.11
2023-05-10T12:54:47.997Z,13.15
2023-05-10T12:57:17.535Z,13.48
2023-05-10T12:59:47.038Z,13.57
2023-05-10T13:02:18.932Z,13.64
2023-05-10T13:04:50.819Z,13.50
2023-05-10T13:07:20.609Z,13.60
2023-05-10T13:09:52.704Z,13.54
2023-05-10T13:12:22.211Z,13.59
2023-05-10T13:14:52.050Z,13.81
2023-05-10T13:17:21.557Z,14.07
2023-05-10T13:19:51.196Z,13.91
2023-05-10T13:22:32.558Z,14.09
2023-05-10T13:25:12.840Z,14.05
2023-05-10T13:27:43.026Z,14.32
2023-05-10T13:30:13.314Z,14.47
2023-05-10T13:32:42.903Z,14.57
2023-05-10T13:35:12.847Z,14.60
2023-05-10T13:37:42.331Z,14.56
2023-05-10T13:40:16.791Z,14.70
2023-05-10T13:42:46.585Z,14.83
2023-05-10T13:45:16.743Z,15.06
2023-05-10T13:47:46.473Z,15.10
2023-05-10T13:50:16.515Z,14.89
2023-05-10T13:52:46.008Z,14.85
2023-05-10T13:55:18.348Z,14.85
2023-05-10T13:57:48.656Z,14.92
2023-05-10T14:00:18.949Z,14.68
2023-05-10T14:02:48.685Z,14.61
2023-05-10T14:05:19.323Z,14.60
2023-05-10T14:07:51.957Z,14.52
2023-05-10T14:10:24.105Z,14.63
2023-05-10T14:12:53.964Z,14.58
2023-05-10T14:15:23.699Z,14.63
2023-05-10T14:17:53.222Z,14.63
2023-05-10T14:20:22.740Z,14.72
2023-05-10T14:22:52.246Z,14.82
2023-05-10T14:25:24.315Z,14.85
2023-05-10T14:27:55.769Z,14.83
2023-05-10T14:30:25.305Z,14.85
2023-05-10T14:32:55.199Z,14.93
2023-05-10T14:35:25.352Z,15.05
2023-05-10T14:37:54.986Z,15.08
2023-05-10T14:40:27.185Z,15.07
2023-05-10T14:42:57.518Z,15.10
2023-05-10T14:45:27.105Z,15.09
2023-05-10T14:47:56.734Z,14.95
2023-05-10T14:50:36.653Z,14.99
2023-05-10T14:53:06.932Z,14.98
2023-05-10T14:55:39.408Z,14.79
2023-05-10T14:58:09.036Z,14.64
2023-05-10T15:00:38.495Z,14.72
2023-05-10T15:03:08.649Z,14.90
2023-05-10T15:05:38.843Z,15.05
2023-05-10T15:08:08.457Z,15.24
2023-05-10T15:10:40.825Z,15.24
2023-05-10T15:13:10.342Z,15.20
2023-05-10T15:15:39.937Z,15.30
2023-05-10T15:18:09.428Z,15.39
2023-05-10T15:20:39.010Z,15.29
2023-05-10T15:23:08.536Z,15.25
2023-05-10T15:25:41.169Z,15.20
2023-05-10T15:28:10.776Z,15.23
2023-05-10T15:30:40.290Z,15.38
2023-05-10T15:33:09.884Z,15.39
2023-05-10T15:35:40.624Z,15.09
2023-05-10T15:38:10.209Z,15.22
2023-05-10T15:40:42.293Z,15.27
2023-05-10T15:43:11.777Z,15.35
2023-05-10T15:45:41.708Z,15.36
2023-05-10T15:48:11.280Z,15.37
2023-05-10T15:50:41.368Z,15.53
2023-05-10T15:53:10.960Z,15.53
2023-05-10T15:55:43.100Z,15.28
2023-05-10T15:58:12.638Z,15.36
2023-05-10T16:00:42.192Z,15.33
2023-05-10T16:03:11.948Z,15.37
2023-05-10T16:05:41.500Z,15.32
2023-05-10T16:08:11.088Z,15.28
2023-05-10T16:10:43.264Z,15.14
2023-05-10T16:13:14.278Z,15.16
2023-05-10T16:15:43.732Z,15.12
2023-05-10T16:18:13.607Z,15.12
2023-05-10T16:20:43.502Z,15.11
2023-05-10T16:23:14.236Z,14.96
2023-05-10T16:25:46.398Z,14.71
2023-05-10T16:28:16.001Z,14.45
2023-05-10T16:30:47.541Z,14.09
2023-05-10T16:33:17.292Z,13.90
2023-05-10T16:35:46.845Z,13.77
2023-05-10T16:38:16.417Z,13.59
2023-05-10T16:40:48.693Z,13.60
2023-05-10T16:43:18.344Z,13.55
2023-05-10T16:45:47.915Z,13.45
2023-05-10T16:48:17.411Z,13.46
2023-05-10T16:50:47.981Z,13.46
2023-05-10T16:53:18.740Z,13.44
2023-05-10T16:55:51.043Z,13.45
2023-05-10T16:58:20.585Z,13.43
2023-05-10T17:00:50.121Z,13.50
2023-05-10T17:03:19.718Z,13.56
2023-05-10T17:05:49.277Z,13.63
2023-05-10T17:08:19.081Z,13.67
2023-05-10T17:10:51.241Z,13.69
2023-05-10T17:13:20.713Z,13.64
2023-05-10T17:15:50.577Z,13.64
2023-05-10T17:18:20.173Z,13.62
2023-05-10T17:20:49.659Z,13.61
2023-05-10T17:23:19.206Z,13.61
2023-05-10T17:25:51.315Z,13.56
2023-05-10T17:28:20.864Z,13.54
2023-05-10T17:30:50.451Z,13.59
2023-05-10T17:33:19.974Z,13.59
2023-05-10T17:35:49.960Z,13.59
2023-05-10T17:38:19.447Z,13.60
2023-05-10T17:40:51.476Z,13.59
2023-05-10T17:43:21.165Z,13.61
2023-05-10T17:45:50.857Z,13.68
2023-05-10T17:48:20.411Z,13.63
2023-05-10T17:50:49.980Z,13.60
2023-05-10T17:53:19.515Z,13.66
2023-05-10T17:55:51.659Z,13.73
2023-05-10T17:58:21.209Z,13.75
2023-05-10T18:00:50.737Z,13.59
2023-05-10T18:03:20.225Z,13.52
2023-05-10T18:05:51.310Z,13.09
2023-05-10T18:08:23.028Z,13.00
2023-05-10T18:10:55.198Z,12.86
2023-05-10T18:13:25.771Z,12.73
2023-05-10T18:15:55.455Z,12.60
2023-05-10T18:18:25.508Z,12.43
2023-05-10T18:20:57.804Z,12.47
2023-05-10T18:23:27.583Z,12.48
2023-05-10T18:25:59.740Z,12.39
2023-05-10T18:28:29.319Z,12.38
2023-05-10T18:30:59.144Z,12.28
2023-05-10T18:33:28.734Z,12.27
2023-05-10T18:35:58.445Z,12.23
2023-05-10T18:38:27.921Z,12.17
2023-05-10T18:41:00.279Z,12.14
2023-05-10T18:43:29.806Z,12.06
2023-05-10T18:45:59.339Z,12.00
2023-05-10T18:48:29.106Z,11.93
2023-05-10T18:50:58.617Z,11.81
2023-05-10T18:53:28.303Z,11.73
2023-05-10T18:56:03.537Z,11.72
2023-05-10T18:58:33.886Z,11.65
2023-05-10T19:01:03.349Z,11.64
2023-05-10T19:03:33.179Z,11.64
2023-05-10T19:06:02.683Z,11.56
2023-05-10T19:08:32.351Z,11.55
2023-05-10T19:11:04.453Z,11.58
2023-05-10T19:13:33.949Z,11.52
2023-05-10T19:16:07.394Z,11.47
2023-05-10T19:18:40.056Z,11.51
2023-05-10T19:21:11.010Z,11.40
2023-05-10T19:23:42.096Z,11.45
2023-05-10T19:26:14.706Z,11.40
2023-05-10T19:28:44.306Z,11.45
2023-05-10T19:31:14.099Z,11.34
2023-05-10T19:33:43.626Z,11.30
2023-05-10T19:36:13.189Z,11.31
2023-05-10T19:38:42.668Z,11.28
2023-05-10T19:41:14.829Z,11.23
2023-05-10T19:43:44.449Z,11.14
2023-05-10T19:46:14.012Z,11.14
2023-05-10T19:48:43.530Z,11.20
2023-05-10T19:51:13.060Z,11.19
2023-05-10T19:53:45.086Z,11.20
2023-05-10T19:56:18.475Z,11.17
2023-05-10T19:58:48.322Z,11.10
2023-05-10T20:01:17.789Z,11.04
2023-05-10T20:03:47.695Z,11.07
2023-05-10T20:06:17.451Z,11.07
2023-05-10T20:08:46.934Z,11.04
2023-05-10T20:11:18.990Z,10.94
2023-05-10T20:13:48.466Z,10.97
2023-05-10T20:16:18.468Z,10.98
2023-05-10T20:18:48.199Z,11.04
2023-05-10T20:21:17.752Z,11.01
2023-05-10T20:23:47.269Z,10.92
2023-05-10T20:26:21.668Z,10.97
2023-05-10T20:28:51.333Z,10.99
2023-05-10T20:31:20.864Z,10.98
2023-05-10T20:33:50.373Z,10.94
2023-05-10T20:36:20.142Z,10.90
2023-05-10T20:38:51.976Z,10.82
2023-05-10T20:41:24.905Z,10.82
2023-05-10T20:43:54.409Z,10.84
2023-05-10T20:46:23.958Z,10.82
2023-05-10T20:48:53.444Z,10.75
2023-05-10T20:51:22.954Z,10.67
2023-05-10T20:53:52.472Z,10.64
2023-05-10T20:56:24.545Z,10.66
2023-05-10T20:58:54.073Z,10.74
2023-05-10T21:01:23.625Z,10.59
2023-05-10T21:03:53.210Z,10.80
2023-05-10T21:06:22.733Z,10.80
2023-05-10T21:08:52.208Z,10.76
2023-05-10T21:11:24.318Z,10.93
2023-05-10T21:13:53.910Z,10.82
2023-05-10T21:16:23.492Z,10.72
2023-05-10T21:18:53.033Z,10.74
2023-05-10T21:21:22.527Z,10.66
2023-05-10T21:23:52.045Z,10.74
2023-05-10T21:26:24.386Z,10.74
2023-05-10T21:28:53.873Z,10.76
2023-05-10T21:31:26.173Z,10.79
2023-05-10T21:33:55.738Z,10.76
2023-05-10T21:36:25.331Z,10.86
2023-05-10T21:38:54.923Z,11.00
2023-05-10T21:41:27.086Z,10.88
2023-05-10T21:43:56.813Z,10.94
2023-05-10T21:46:26.435Z,10.85
2023-05-10T21:48:56.002Z,10.89
2023-05-10T21:51:25.478Z,10.87
2023-05-10T21:53:54.986Z,10.90
2023-05-10T21:56:27.142Z,10.92
2023-05-10T21:58:57.203Z,11.03
2023-05-10T22:01:26.810Z,10.88
2023-05-10T22:03:56.402Z,10.84
2023-05-10T22:06:25.915Z,10.90
2023-05-10T22:08:55.410Z,10.97
2023-05-10T22:11:27.635Z,11.05
2023-05-10T22:13:57.123Z,10.98
2023-05-10T22:16:28.885Z,11.11
2023-05-10T22:18:58.553Z,11.15
2023-05-10T22:21:28.255Z,11.06
2023-05-10T22:23:57.772Z,11.15
2023-05-10T22:26:29.910Z,11.12
2023-05-10T22:28:59.422Z,10.87
2023-05-10T22:31:29.694Z,11.00
2023-05-10T22:33:59.237Z,10.89
2023-05-10T22:36:29.180Z,10.87
2023-05-10T22:38:58.725Z,11.01
2023-05-10T22:41:31.062Z,10.93
2023-05-10T22:44:00.644Z,10.98
2023-05-10T22:46:30.283Z,11.03
2023-05-10T22:48:59.825Z,10.89
2023-05-10T22:51:29.389Z,10.76
2023-05-10T22:53:58.926Z,10.66
2023-05-10T22:56:31.040Z,10.77
2023-05-10T22:59:00.643Z,10.73
2023-05-10T23:01:30.326Z,10.65
2023-05-10T23:03:59.855Z,10.73
2023-05-10T23:06:29.377Z,10.83
2023-05-10T23:08:58.942Z,10.76
2023-05-10T23:11:31.145Z,10.72
2023-05-10T23:14:00.728Z,10.71
2023-05-10T23:16:30.738Z,10.62
2023-05-10T23:19:00.427Z,10.71
2023-05-10T23:21:32.228Z,10.83
2023-05-10T23:24:01.965Z,10.74
2023-05-10T23:26:34.342Z,10.71
2023-05-10T23:29:04.233Z,10.72
2023-05-10T23:31:33.771Z,10.75
2023-05-10T23:34:03.542Z,10.72
2023-05-10T23:36:33.918Z,10.72
2023-05-10T23:39:03.468Z,10.81
2023-05-10T23:41:35.740Z,10.84
2023-05-10T23:44:05.493Z,10.63
2023-05-10T23:46:35.039Z,10.71
2023-05-10T23:49:04.648Z,10.57
2023-05-10T23:51:34.139Z,10.56
2023-05-10T23:54:03.702Z,10.50
2023-05-10T23:56:35.906Z,10.49
2023-05-10T23:59:06.065Z,10.50
